sensor_id;sensor_type;location;lat;lon;timestamp;P1;durP1;ratioP1;P2;durP2;ratioP2
3274;SDS011;1649;53.672;10.064;2022-12-18T00:01:24;25.50;;;12.70;;
3274;SDS011;1649;53.672;10.064;2022-12-18T00:03:50;31.60;;;16.35;;
3274;SDS011;1649;53.672;10.064;2022-12-18T00:06:18;28.45;;;14.50;;
3274;SDS011;1649;53.672;10.064;2022-12-18T00:08:44;26.55;;;13.15;;
3274;SDS011;1649;53.672;10.064;2022-12-18T00:11:11;27.20;;;14.17;;
3274;SDS011;1649;53.672;10.064;2022-12-18T00:13:38;29.77;;;15.93;;
3274;SDS011;1649;53.672;10.064;2022-12-18T00:16:05;30.97;;;17.40;;
3274;SDS011;1649;53.672;10.064;2022-12-18T00:18:33;32.47;;;16.42;;
3274;SDS011;1649;53.672;10.064;2022-12-18T00:21:00;26.63;;;15.73;;
3274;SDS011;1649;53.672;10.064;2022-12-18T00:23:30;28.00;;;15.25;;
3274;SDS011;1649;53.672;10.064;2022-12-18T00:25:59;35.97;;;18.35;;
3274;SDS011;1649;53.672;10.064;2022-12-18T00:28:26;33.75;;;16.30;;
3274;SDS011;1649;53.672;10.064;2022-12-18T00:31:05;30.35;;;15.43;;
3274;SDS011;1649;53.672;10.064;2022-12-18T00:33:33;27.65;;;15.45;;
3274;SDS011;1649;53.672;10.064;2022-12-18T00:36:19;27.33;;;14.20;;
3274;SDS011;1649;53.672;10.064;2022-12-18T00:38:46;25.85;;;13.57;;
3274;SDS011;1649;53.672;10.064;2022-12-18T00:41:13;24.75;;;13.82;;
3274;SDS011;1649;53.672;10.064;2022-12-18T00:43:59;23.05;;;12.75;;
3274;SDS011;1649;53.672;10.064;2022-12-18T00:46:25;23.53;;;13.70;;
3274;SDS011;1649;53.672;10.064;2022-12-18T00:48:51;34.03;;;16.40;;
3274;SDS011;1649;53.672;10.064;2022-12-18T00:51:16;26.67;;;12.30;;
3274;SDS011;1649;53.672;10.064;2022-12-18T00:53:42;23.00;;;13.83;;
3274;SDS011;1649;53.672;10.064;2022-12-18T00:56:07;24.67;;;13.07;;
3274;SDS011;1649;53.672;10.064;2022-12-18T00:58:33;26.87;;;14.57;;
3274;SDS011;1649;53.672;10.064;2022-12-18T01:00:59;28.03;;;14.33;;
3274;SDS011;1649;53.672;10.064;2022-12-18T01:03:24;22.73;;;12.20;;
3274;SDS011;1649;53.672;10.064;2022-12-18T01:05:49;21.80;;;11.83;;
3274;SDS011;1649;53.672;10.064;2022-12-18T01:08:15;23.47;;;12.27;;
3274;SDS011;1649;53.672;10.064;2022-12-18T01:10:40;25.37;;;15.13;;
3274;SDS011;1649;53.672;10.064;2022-12-18T01:13:06;29.23;;;14.97;;
3274;SDS011;1649;53.672;10.064;2022-12-18T01:15:32;25.87;;;14.47;;
3274;SDS011;1649;53.672;10.064;2022-12-18T01:17:57;30.90;;;15.30;;
3274;SDS011;1649;53.672;10.064;2022-12-18T01:20:23;27.17;;;14.57;;
3274;SDS011;1649;53.672;10.064;2022-12-18T01:22:48;24.37;;;14.87;;
3274;SDS011;1649;53.672;10.064;2022-12-18T01:25:14;25.00;;;14.10;;
3274;SDS011;1649;53.672;10.064;2022-12-18T01:27:39;23.80;;;14.30;;
3274;SDS011;1649;53.672;10.064;2022-12-18T01:30:05;23.17;;;12.30;;
3274;SDS011;1649;53.672;10.064;2022-12-18T01:32:31;18.20;;;10.10;;
3274;SDS011;1649;53.672;10.064;2022-12-18T01:34:57;15.73;;;6.60;;
3274;SDS011;1649;53.672;10.064;2022-12-18T01:37:22;26.83;;;14.00;;
3274;SDS011;1649;53.672;10.064;2022-12-18T01:39:48;9.30;;;5.97;;
3274;SDS011;1649;53.672;10.064;2022-12-18T01:42:16;24.77;;;12.68;;
3274;SDS011;1649;53.672;10.064;2022-12-18T01:49:56;15.48;;;8.70;;
3274;SDS011;1649;53.672;10.064;2022-12-18T01:52:24;21.08;;;12.73;;
3274;SDS011;1649;53.672;10.064;2022-12-18T01:54:53;26.30;;;13.77;;
3274;SDS011;1649;53.672;10.064;2022-12-18T01:57:19;25.40;;;11.25;;
3274;SDS011;1649;53.672;10.064;2022-12-18T01:59:45;14.43;;;7.63;;
3274;SDS011;1649;53.672;10.064;2022-12-18T02:02:14;22.40;;;12.38;;
3274;SDS011;1649;53.672;10.064;2022-12-18T02:04:41;22.67;;;12.27;;
3274;SDS011;1649;53.672;10.064;2022-12-18T02:07:11;23.97;;;13.00;;
3274;SDS011;1649;53.672;10.064;2022-12-18T02:09:48;21.50;;;8.68;;
3274;SDS011;1649;53.672;10.064;2022-12-18T02:12:38;16.67;;;9.98;;
3274;SDS011;1649;53.672;10.064;2022-12-18T02:15:15;21.98;;;10.98;;
3274;SDS011;1649;53.672;10.064;2022-12-18T02:17:50;12.05;;;5.78;;
3274;SDS011;1649;53.672;10.064;2022-12-18T02:20:24;20.83;;;12.77;;
3274;SDS011;1649;53.672;10.064;2022-12-18T02:26:03;18.10;;;10.63;;
3274;SDS011;1649;53.672;10.064;2022-12-18T02:28:38;15.05;;;9.98;;
3274;SDS011;1649;53.672;10.064;2022-12-18T02:31:10;21.75;;;11.63;;
3274;SDS011;1649;53.672;10.064;2022-12-18T02:33:39;23.17;;;12.63;;
3274;SDS011;1649;53.672;10.064;2022-12-18T02:36:06;24.35;;;12.25;;
3274;SDS011;1649;53.672;10.064;2022-12-18T02:38:34;18.55;;;10.20;;
3274;SDS011;1649;53.672;10.064;2022-12-18T02:41:00;24.10;;;12.20;;
3274;SDS011;1649;53.672;10.064;2022-12-18T02:43:28;25.77;;;11.38;;
3274;SDS011;1649;53.672;10.064;2022-12-18T02:45:58;32.28;;;12.45;;
3274;SDS011;1649;53.672;10.064;2022-12-18T02:48:32;19.63;;;11.05;;
3274;SDS011;1649;53.672;10.064;2022-12-18T02:53:35;23.23;;;11.95;;
3274;SDS011;1649;53.672;10.064;2022-12-18T02:59:00;21.55;;;11.32;;
3274;SDS011;1649;53.672;10.064;2022-12-18T03:01:33;22.73;;;10.35;;
3274;SDS011;1649;53.672;10.064;2022-12-18T03:04:01;23.55;;;11.88;;
3274;SDS011;1649;53.672;10.064;2022-12-18T03:06:37;25.20;;;13.15;;
3274;SDS011;1649;53.672;10.064;2022-12-18T03:09:11;21.33;;;10.32;;
3274;SDS011;1649;53.672;10.064;2022-12-18T03:11:43;19.80;;;10.52;;
3274;SDS011;1649;53.672;10.064;2022-12-18T03:14:31;17.83;;;9.80;;
3274;SDS011;1649;53.672;10.064;2022-12-18T03:17:03;21.80;;;12.30;;
3274;SDS011;1649;53.672;10.064;2022-12-18T03:19:32;21.27;;;10.90;;
3274;SDS011;1649;53.672;10.064;2022-12-18T03:22:00;14.18;;;8.32;;
3274;SDS011;1649;53.672;10.064;2022-12-18T03:24:28;22.50;;;11.73;;
3274;SDS011;1649;53.672;10.064;2022-12-18T03:26:57;20.50;;;10.63;;
3274;SDS011;1649;53.672;10.064;2022-12-18T03:29:36;15.30;;;9.07;;
3274;SDS011;1649;53.672;10.064;2022-12-18T03:32:06;21.45;;;11.25;;
3274;SDS011;1649;53.672;10.064;2022-12-18T03:34:35;17.92;;;10.80;;
3274;SDS011;1649;53.672;10.064;2022-12-18T03:37:04;22.05;;;11.20;;
3274;SDS011;1649;53.672;10.064;2022-12-18T03:39:30;23.58;;;10.82;;
3274;SDS011;1649;53.672;10.064;2022-12-18T03:42:05;21.20;;;10.23;;
3274;SDS011;1649;53.672;10.064;2022-12-18T03:44:57;16.27;;;10.48;;
3274;SDS011;1649;53.672;10.064;2022-12-18T03:47:29;24.02;;;11.45;;
3274;SDS011;1649;53.672;10.064;2022-12-18T03:50:11;18.67;;;9.13;;
3274;SDS011;1649;53.672;10.064;2022-12-18T03:55:49;16.80;;;8.98;;
3274;SDS011;1649;53.672;10.064;2022-12-18T03:58:17;14.50;;;7.00;;
3274;SDS011;1649;53.672;10.064;2022-12-18T04:00:44;17.85;;;9.90;;
3274;SDS011;1649;53.672;10.064;2022-12-18T04:03:11;11.85;;;6.88;;
3274;SDS011;1649;53.672;10.064;2022-12-18T04:05:38;18.38;;;10.52;;
3274;SDS011;1649;53.672;10.064;2022-12-18T04:08:05;17.48;;;8.02;;
3274;SDS011;1649;53.672;10.064;2022-12-18T04:10:31;16.90;;;7.30;;
3274;SDS011;1649;53.672;10.064;2022-12-18T04:12:57;15.43;;;7.20;;
3274;SDS011;1649;53.672;10.064;2022-12-18T04:15:23;18.35;;;8.27;;
3274;SDS011;1649;53.672;10.064;2022-12-18T04:17:49;14.10;;;8.40;;
3274;SDS011;1649;53.672;10.064;2022-12-18T04:20:15;24.55;;;10.25;;
3274;SDS011;1649;53.672;10.064;2022-12-18T04:22:41;19.10;;;9.90;;
3274;SDS011;1649;53.672;10.064;2022-12-18T04:25:07;21.80;;;12.23;;
3274;SDS011;1649;53.672;10.064;2022-12-18T04:27:33;15.95;;;8.10;;
3274;SDS011;1649;53.672;10.064;2022-12-18T04:29:59;17.73;;;10.00;;
3274;SDS011;1649;53.672;10.064;2022-12-18T04:32:24;20.30;;;9.37;;
3274;SDS011;1649;53.672;10.064;2022-12-18T04:34:50;16.97;;;8.60;;
3274;SDS011;1649;53.672;10.064;2022-12-18T04:37:15;20.13;;;11.00;;
3274;SDS011;1649;53.672;10.064;2022-12-18T04:39:41;22.67;;;10.27;;
3274;SDS011;1649;53.672;10.064;2022-12-18T04:42:06;10.77;;;5.37;;
3274;SDS011;1649;53.672;10.064;2022-12-18T04:44:32;20.40;;;10.27;;
3274;SDS011;1649;53.672;10.064;2022-12-18T04:46:57;21.73;;;10.73;;
3274;SDS011;1649;53.672;10.064;2022-12-18T04:49:23;14.47;;;6.87;;
3274;SDS011;1649;53.672;10.064;2022-12-18T04:51:48;18.30;;;11.33;;
3274;SDS011;1649;53.672;10.064;2022-12-18T04:54:14;16.50;;;9.27;;
3274;SDS011;1649;53.672;10.064;2022-12-18T04:56:39;20.30;;;10.90;;
3274;SDS011;1649;53.672;10.064;2022-12-18T04:59:05;14.67;;;9.00;;
3274;SDS011;1649;53.672;10.064;2022-12-18T05:01:30;30.00;;;10.27;;
3274;SDS011;1649;53.672;10.064;2022-12-18T05:03:59;20.02;;;9.65;;
3274;SDS011;1649;53.672;10.064;2022-12-18T05:06:24;18.70;;;10.27;;
3274;SDS011;1649;53.672;10.064;2022-12-18T05:08:50;17.10;;;9.10;;
3274;SDS011;1649;53.672;10.064;2022-12-18T05:11:15;17.30;;;9.67;;
3274;SDS011;1649;53.672;10.064;2022-12-18T05:13:42;19.73;;;10.20;;
3274;SDS011;1649;53.672;10.064;2022-12-18T05:16:09;17.45;;;9.60;;
3274;SDS011;1649;53.672;10.064;2022-12-18T05:18:35;21.07;;;10.40;;
3274;SDS011;1649;53.672;10.064;2022-12-18T05:21:00;16.30;;;9.50;;
3274;SDS011;1649;53.672;10.064;2022-12-18T05:23:26;14.63;;;9.37;;
3274;SDS011;1649;53.672;10.064;2022-12-18T05:28:23;25.08;;;11.60;;
3274;SDS011;1649;53.672;10.064;2022-12-18T05:30:50;12.05;;;8.02;;
3274;SDS011;1649;53.672;10.064;2022-12-18T05:33:18;22.40;;;9.85;;
3274;SDS011;1649;53.672;10.064;2022-12-18T05:35:44;22.48;;;10.52;;
3274;SDS011;1649;53.672;10.064;2022-12-18T05:38:14;24.45;;;11.13;;
3274;SDS011;1649;53.672;10.064;2022-12-18T05:40:41;22.30;;;9.60;;
3274;SDS011;1649;53.672;10.064;2022-12-18T05:43:08;17.17;;;8.90;;
3274;SDS011;1649;53.672;10.064;2022-12-18T05:45:36;17.70;;;8.97;;
3274;SDS011;1649;53.672;10.064;2022-12-18T05:48:03;20.65;;;11.20;;
3274;SDS011;1649;53.672;10.064;2022-12-18T05:50:28;13.93;;;7.27;;
3274;SDS011;1649;53.672;10.064;2022-12-18T05:52:54;20.67;;;10.40;;
3274;SDS011;1649;53.672;10.064;2022-12-18T05:55:19;21.40;;;9.60;;
3274;SDS011;1649;53.672;10.064;2022-12-18T05:57:45;26.23;;;11.33;;
3274;SDS011;1649;53.672;10.064;2022-12-18T06:00:11;11.03;;;6.73;;
3274;SDS011;1649;53.672;10.064;2022-12-18T06:02:36;18.70;;;10.35;;
3274;SDS011;1649;53.672;10.064;2022-12-18T06:05:02;18.23;;;9.63;;
3274;SDS011;1649;53.672;10.064;2022-12-18T06:07:28;19.93;;;10.93;;
3274;SDS011;1649;53.672;10.064;2022-12-18T06:09:53;23.87;;;10.50;;
3274;SDS011;1649;53.672;10.064;2022-12-18T06:12:19;18.90;;;10.43;;
3274;SDS011;1649;53.672;10.064;2022-12-18T06:14:44;22.20;;;11.00;;
3274;SDS011;1649;53.672;10.064;2022-12-18T06:17:10;24.10;;;10.30;;
3274;SDS011;1649;53.672;10.064;2022-12-18T06:19:35;8.97;;;6.20;;
3274;SDS011;1649;53.672;10.064;2022-12-18T06:22:01;19.50;;;9.60;;
3274;SDS011;1649;53.672;10.064;2022-12-18T06:24:26;7.60;;;4.77;;
3274;SDS011;1649;53.672;10.064;2022-12-18T06:26:52;22.47;;;10.67;;
3274;SDS011;1649;53.672;10.064;2022-12-18T06:29:17;12.73;;;7.60;;
3274;SDS011;1649;53.672;10.064;2022-12-18T06:31:43;19.97;;;9.83;;
3274;SDS011;1649;53.672;10.064;2022-12-18T06:34:08;22.00;;;11.37;;
3274;SDS011;1649;53.672;10.064;2022-12-18T06:36:34;19.00;;;10.03;;
3274;SDS011;1649;53.672;10.064;2022-12-18T06:38:59;20.30;;;10.60;;
3274;SDS011;1649;53.672;10.064;2022-12-18T06:41:25;21.20;;;11.50;;
3274;SDS011;1649;53.672;10.064;2022-12-18T06:43:51;24.50;;;11.97;;
3274;SDS011;1649;53.672;10.064;2022-12-18T06:46:16;17.40;;;9.60;;
3274;SDS011;1649;53.672;10.064;2022-12-18T06:48:42;17.33;;;9.23;;
3274;SDS011;1649;53.672;10.064;2022-12-18T06:51:07;22.17;;;10.10;;
3274;SDS011;1649;53.672;10.064;2022-12-18T06:53:33;24.20;;;10.97;;
3274;SDS011;1649;53.672;10.064;2022-12-18T06:56:03;16.73;;;10.30;;
3274;SDS011;1649;53.672;10.064;2022-12-18T06:58:30;19.58;;;10.73;;
3274;SDS011;1649;53.672;10.064;2022-12-18T07:00:59;15.80;;;10.27;;
3274;SDS011;1649;53.672;10.064;2022-12-18T07:03:26;20.98;;;11.25;;
3274;SDS011;1649;53.672;10.064;2022-12-18T07:05:51;19.73;;;10.97;;
3274;SDS011;1649;53.672;10.064;2022-12-18T07:08:17;16.93;;;10.40;;
3274;SDS011;1649;53.672;10.064;2022-12-18T07:10:43;18.40;;;10.87;;
3274;SDS011;1649;53.672;10.064;2022-12-18T07:13:08;21.58;;;12.40;;
3274;SDS011;1649;53.672;10.064;2022-12-18T07:15:34;20.50;;;11.57;;
3274;SDS011;1649;53.672;10.064;2022-12-18T07:17:59;21.23;;;10.50;;
3274;SDS011;1649;53.672;10.064;2022-12-18T07:20:25;20.43;;;10.87;;
3274;SDS011;1649;53.672;10.064;2022-12-18T07:22:50;27.50;;;13.00;;
3274;SDS011;1649;53.672;10.064;2022-12-18T07:25:16;21.93;;;12.63;;
3274;SDS011;1649;53.672;10.064;2022-12-18T07:27:41;20.90;;;11.47;;
3274;SDS011;1649;53.672;10.064;2022-12-18T07:30:07;26.27;;;12.30;;
3274;SDS011;1649;53.672;10.064;2022-12-18T07:32:33;19.85;;;10.23;;
3274;SDS011;1649;53.672;10.064;2022-12-18T07:34:59;21.40;;;11.60;;
3274;SDS011;1649;53.672;10.064;2022-12-18T07:37:24;14.33;;;9.27;;
3274;SDS011;1649;53.672;10.064;2022-12-18T07:39:50;17.67;;;10.33;;
3274;SDS011;1649;53.672;10.064;2022-12-18T07:42:15;23.30;;;12.20;;
3274;SDS011;1649;53.672;10.064;2022-12-18T07:44:57;16.88;;;9.55;;
3274;SDS011;1649;53.672;10.064;2022-12-18T07:47:26;14.65;;;7.85;;
3274;SDS011;1649;53.672;10.064;2022-12-18T07:49:52;26.87;;;12.63;;
3274;SDS011;1649;53.672;10.064;2022-12-18T07:52:17;20.70;;;10.33;;
3274;SDS011;1649;53.672;10.064;2022-12-18T07:54:43;21.77;;;11.90;;
3274;SDS011;1649;53.672;10.064;2022-12-18T07:57:08;22.17;;;12.03;;
3274;SDS011;1649;53.672;10.064;2022-12-18T07:59:34;18.03;;;9.90;;
3274;SDS011;1649;53.672;10.064;2022-12-18T08:02:00;18.00;;;10.47;;
3274;SDS011;1649;53.672;10.064;2022-12-18T08:04:25;16.90;;;9.00;;
3274;SDS011;1649;53.672;10.064;2022-12-18T08:06:51;27.70;;;10.33;;
3274;SDS011;1649;53.672;10.064;2022-12-18T08:09:17;18.93;;;10.33;;
3274;SDS011;1649;53.672;10.064;2022-12-18T08:11:43;19.03;;;11.17;;
3274;SDS011;1649;53.672;10.064;2022-12-18T08:14:08;22.47;;;10.73;;
3274;SDS011;1649;53.672;10.064;2022-12-18T08:16:34;8.52;;;5.68;;
3274;SDS011;1649;53.672;10.064;2022-12-18T08:19:00;20.33;;;9.60;;
3274;SDS011;1649;53.672;10.064;2022-12-18T08:21:27;23.10;;;13.10;;
3274;SDS011;1649;53.672;10.064;2022-12-18T08:23:54;23.38;;;12.23;;
3274;SDS011;1649;53.672;10.064;2022-12-18T08:26:22;9.48;;;7.50;;
3274;SDS011;1649;53.672;10.064;2022-12-18T08:28:48;23.23;;;12.25;;
3274;SDS011;1649;53.672;10.064;2022-12-18T08:31:14;26.23;;;12.75;;
3274;SDS011;1649;53.672;10.064;2022-12-18T08:33:40;21.60;;;10.63;;
3274;SDS011;1649;53.672;10.064;2022-12-18T08:36:06;20.85;;;9.98;;
3274;SDS011;1649;53.672;10.064;2022-12-18T08:38:33;20.98;;;9.95;;
3274;SDS011;1649;53.672;10.064;2022-12-18T08:40:59;26.10;;;12.50;;
3274;SDS011;1649;53.672;10.064;2022-12-18T08:43:26;24.38;;;12.18;;
3274;SDS011;1649;53.672;10.064;2022-12-18T08:46:11;26.63;;;13.07;;
3274;SDS011;1649;53.672;10.064;2022-12-18T08:48:36;21.43;;;10.03;;
3274;SDS011;1649;53.672;10.064;2022-12-18T08:51:02;19.90;;;11.93;;
3274;SDS011;1649;53.672;10.064;2022-12-18T08:53:28;21.60;;;12.07;;
3274;SDS011;1649;53.672;10.064;2022-12-18T08:55:53;18.37;;;9.17;;
3274;SDS011;1649;53.672;10.064;2022-12-18T08:58:20;23.05;;;11.93;;
3274;SDS011;1649;53.672;10.064;2022-12-18T09:00:46;23.43;;;14.13;;
3274;SDS011;1649;53.672;10.064;2022-12-18T09:03:12;27.33;;;11.43;;
3274;SDS011;1649;53.672;10.064;2022-12-18T09:05:39;23.10;;;13.60;;
3274;SDS011;1649;53.672;10.064;2022-12-18T09:08:04;22.57;;;12.03;;
3274;SDS011;1649;53.672;10.064;2022-12-18T09:10:30;25.90;;;12.43;;
3274;SDS011;1649;53.672;10.064;2022-12-18T09:12:56;22.45;;;12.05;;
3274;SDS011;1649;53.672;10.064;2022-12-18T09:15:22;21.77;;;11.83;;
3274;SDS011;1649;53.672;10.064;2022-12-18T09:17:48;22.63;;;12.17;;
3274;SDS011;1649;53.672;10.064;2022-12-18T09:20:14;20.55;;;11.45;;
3274;SDS011;1649;53.672;10.064;2022-12-18T09:22:42;23.10;;;11.75;;
3274;SDS011;1649;53.672;10.064;2022-12-18T09:25:08;21.93;;;12.27;;
3274;SDS011;1649;53.672;10.064;2022-12-18T09:27:34;20.20;;;11.70;;
3274;SDS011;1649;53.672;10.064;2022-12-18T09:29:59;20.20;;;12.98;;
3274;SDS011;1649;53.672;10.064;2022-12-18T09:32:25;23.33;;;12.77;;
3274;SDS011;1649;53.672;10.064;2022-12-18T09:34:51;29.73;;;14.10;;
3274;SDS011;1649;53.672;10.064;2022-12-18T09:37:16;22.53;;;14.03;;
3274;SDS011;1649;53.672;10.064;2022-12-18T09:39:42;22.00;;;13.13;;
3274;SDS011;1649;53.672;10.064;2022-12-18T09:42:29;28.13;;;13.77;;
3274;SDS011;1649;53.672;10.064;2022-12-18T09:44:53;26.23;;;13.75;;
3274;SDS011;1649;53.672;10.064;2022-12-18T09:49:55;27.25;;;13.57;;
3274;SDS011;1649;53.672;10.064;2022-12-18T09:52:32;29.40;;;14.52;;
3274;SDS011;1649;53.672;10.064;2022-12-18T09:57:43;17.30;;;9.32;;
3274;SDS011;1649;53.672;10.064;2022-12-18T10:00:19;17.83;;;10.15;;
3274;SDS011;1649;53.672;10.064;2022-12-18T10:02:47;22.67;;;11.05;;
3274;SDS011;1649;53.672;10.064;2022-12-18T10:05:14;17.20;;;9.02;;
3274;SDS011;1649;53.672;10.064;2022-12-18T10:08:02;24.48;;;12.15;;
3274;SDS011;1649;53.672;10.064;2022-12-18T10:13:20;16.25;;;10.70;;
3274;SDS011;1649;53.672;10.064;2022-12-18T10:24:16;20.50;;;10.27;;
3274;SDS011;1649;53.672;10.064;2022-12-18T10:26:45;20.20;;;10.05;;
3274;SDS011;1649;53.672;10.064;2022-12-18T10:29:12;18.90;;;10.93;;
3274;SDS011;1649;53.672;10.064;2022-12-18T10:31:39;20.15;;;12.15;;
3274;SDS011;1649;53.672;10.064;2022-12-18T10:34:09;16.65;;;10.27;;
3274;SDS011;1649;53.672;10.064;2022-12-18T10:36:38;19.75;;;12.70;;
3274;SDS011;1649;53.672;10.064;2022-12-18T10:39:17;22.70;;;12.40;;
3274;SDS011;1649;53.672;10.064;2022-12-18T10:41:45;15.57;;;8.75;;
3274;SDS011;1649;53.672;10.064;2022-12-18T10:46:40;16.08;;;9.48;;
3274;SDS011;1649;53.672;10.064;2022-12-18T10:49:07;12.40;;;3.50;;
3274;SDS011;1649;53.672;10.064;2022-12-18T10:51:48;20.30;;;9.88;;
3274;SDS011;1649;53.672;10.064;2022-12-18T10:54:19;17.15;;;10.07;;
3274;SDS011;1649;53.672;10.064;2022-12-18T10:56:47;20.50;;;10.50;;
3274;SDS011;1649;53.672;10.064;2022-12-18T10:59:14;24.27;;;12.32;;
3274;SDS011;1649;53.672;10.064;2022-12-18T11:01:48;21.45;;;10.55;;
3274;SDS011;1649;53.672;10.064;2022-12-18T11:06:52;23.30;;;10.50;;
3274;SDS011;1649;53.672;10.064;2022-12-18T11:09:35;17.70;;;9.60;;
3274;SDS011;1649;53.672;10.064;2022-12-18T11:12:14;12.82;;;6.68;;
3274;SDS011;1649;53.672;10.064;2022-12-18T11:14:46;17.15;;;10.75;;
3274;SDS011;1649;53.672;10.064;2022-12-18T11:17:26;27.13;;;10.38;;
3274;SDS011;1649;53.672;10.064;2022-12-18T11:20:01;22.05;;;10.85;;
3274;SDS011;1649;53.672;10.064;2022-12-18T11:22:30;17.95;;;10.40;;
3274;SDS011;1649;53.672;10.064;2022-12-18T11:25:05;14.73;;;8.30;;
3274;SDS011;1649;53.672;10.064;2022-12-18T11:27:53;16.95;;;10.27;;
3274;SDS011;1649;53.672;10.064;2022-12-18T11:32:48;20.52;;;10.20;;
3274;SDS011;1649;53.672;10.064;2022-12-18T11:35:23;18.15;;;9.55;;
3274;SDS011;1649;53.672;10.064;2022-12-18T11:37:57;12.40;;;6.43;;
3274;SDS011;1649;53.672;10.064;2022-12-18T11:40:35;17.65;;;8.82;;
3274;SDS011;1649;53.672;10.064;2022-12-18T11:43:04;24.25;;;11.60;;
3274;SDS011;1649;53.672;10.064;2022-12-18T11:45:34;16.85;;;10.80;;
3274;SDS011;1649;53.672;10.064;2022-12-18T11:48:10;12.05;;;6.68;;
3274;SDS011;1649;53.672;10.064;2022-12-18T11:50:54;19.67;;;10.93;;
3274;SDS011;1649;53.672;10.064;2022-12-18T11:53:21;16.55;;;8.85;;
3274;SDS011;1649;53.672;10.064;2022-12-18T11:55:55;20.70;;;10.35;;
3274;SDS011;1649;53.672;10.064;2022-12-18T11:58:42;14.05;;;8.10;;
3274;SDS011;1649;53.672;10.064;2022-12-18T12:01:30;24.05;;;12.88;;
3274;SDS011;1649;53.672;10.064;2022-12-18T12:17:55;14.63;;;7.53;;
3274;SDS011;1649;53.672;10.064;2022-12-18T12:20:38;14.13;;;7.75;;
3274;SDS011;1649;53.672;10.064;2022-12-18T12:26:07;14.65;;;8.23;;
3274;SDS011;1649;53.672;10.064;2022-12-18T12:28:42;15.80;;;9.07;;
3274;SDS011;1649;53.672;10.064;2022-12-18T12:37:01;20.90;;;9.85;;
3274;SDS011;1649;53.672;10.064;2022-12-18T12:39:32;19.35;;;10.07;;
3274;SDS011;1649;53.672;10.064;2022-12-18T12:42:01;18.83;;;10.07;;
3274;SDS011;1649;53.672;10.064;2022-12-18T12:44:53;17.38;;;9.80;;
3274;SDS011;1649;53.672;10.064;2022-12-18T12:49:57;21.00;;;10.93;;
3274;SDS011;1649;53.672;10.064;2022-12-18T12:52:30;25.05;;;11.20;;
3274;SDS011;1649;53.672;10.064;2022-12-18T12:55:22;21.60;;;11.77;;
3274;SDS011;1649;53.672;10.064;2022-12-18T13:00:31;20.88;;;10.90;;
3274;SDS011;1649;53.672;10.064;2022-12-18T13:03:08;18.92;;;10.13;;
3274;SDS011;1649;53.672;10.064;2022-12-18T13:05:46;19.83;;;10.32;;
3274;SDS011;1649;53.672;10.064;2022-12-18T13:08:26;14.80;;;8.35;;
3274;SDS011;1649;53.672;10.064;2022-12-18T13:10:59;20.15;;;10.70;;
3274;SDS011;1649;53.672;10.064;2022-12-18T13:13:53;21.50;;;10.20;;
3274;SDS011;1649;53.672;10.064;2022-12-18T13:16:21;17.58;;;9.73;;
3274;SDS011;1649;53.672;10.064;2022-12-18T13:18:49;20.65;;;11.30;;
3274;SDS011;1649;53.672;10.064;2022-12-18T13:23:50;20.03;;;8.80;;
3274;SDS011;1649;53.672;10.064;2022-12-18T13:36:43;23.45;;;11.35;;
3274;SDS011;1649;53.672;10.064;2022-12-18T13:39:10;37.80;;;13.98;;
3274;SDS011;1649;53.672;10.064;2022-12-18T13:41:39;27.15;;;14.35;;
3274;SDS011;1649;53.672;10.064;2022-12-18T13:44:13;25.67;;;13.35;;
3274;SDS011;1649;53.672;10.064;2022-12-18T13:46:56;14.50;;;9.52;;
3274;SDS011;1649;53.672;10.064;2022-12-18T13:49:23;19.35;;;9.95;;
3274;SDS011;1649;53.672;10.064;2022-12-18T13:51:54;13.88;;;7.70;;
3274;SDS011;1649;53.672;10.064;2022-12-18T13:56:59;10.73;;;6.57;;
3274;SDS011;1649;53.672;10.064;2022-12-18T13:59:26;22.25;;;10.40;;
3274;SDS011;1649;53.672;10.064;2022-12-18T14:02:14;32.65;;;12.88;;
3274;SDS011;1649;53.672;10.064;2022-12-18T14:04:44;26.70;;;12.98;;
3274;SDS011;1649;53.672;10.064;2022-12-18T14:07:15;20.52;;;9.55;;
3274;SDS011;1649;53.672;10.064;2022-12-18T14:09:44;30.27;;;12.48;;
3274;SDS011;1649;53.672;10.064;2022-12-18T14:12:30;30.73;;;13.52;;
3274;SDS011;1649;53.672;10.064;2022-12-18T14:17:53;22.40;;;12.23;;
3274;SDS011;1649;53.672;10.064;2022-12-18T14:20:24;27.73;;;14.27;;
3274;SDS011;1649;53.672;10.064;2022-12-18T14:22:51;30.50;;;13.63;;
3274;SDS011;1649;53.672;10.064;2022-12-18T14:25:18;16.37;;;8.90;;
3274;SDS011;1649;53.672;10.064;2022-12-18T14:27:45;26.73;;;12.15;;
3274;SDS011;1649;53.672;10.064;2022-12-18T14:30:38;31.08;;;11.88;;
3274;SDS011;1649;53.672;10.064;2022-12-18T14:35:36;25.02;;;10.70;;
3274;SDS011;1649;53.672;10.064;2022-12-18T14:38:35;29.27;;;13.15;;
3274;SDS011;1649;53.672;10.064;2022-12-18T14:41:14;25.15;;;12.55;;
3274;SDS011;1649;53.672;10.064;2022-12-18T14:43:43;22.27;;;11.82;;
3274;SDS011;1649;53.672;10.064;2022-12-18T14:48:57;33.28;;;14.45;;
3274;SDS011;1649;53.672;10.064;2022-12-18T14:51:25;31.08;;;14.45;;
3274;SDS011;1649;53.672;10.064;2022-12-18T14:57:05;32.15;;;15.07;;
3274;SDS011;1649;53.672;10.064;2022-12-18T14:59:13;21.55;;;11.75;;
3274;SDS011;1649;53.672;10.064;2022-12-18T15:01:53;34.72;;;13.80;;
3274;SDS011;1649;53.672;10.064;2022-12-18T15:09:33;28.60;;;13.68;;
3274;SDS011;1649;53.672;10.064;2022-12-18T15:12:00;23.90;;;10.20;;
3274;SDS011;1649;53.672;10.064;2022-12-18T15:16:54;29.15;;;13.75;;
3274;SDS011;1649;53.672;10.064;2022-12-18T15:19:21;22.92;;;12.90;;
3274;SDS011;1649;53.672;10.064;2022-12-18T15:21:50;44.15;;;19.45;;
3274;SDS011;1649;53.672;10.064;2022-12-18T15:24:17;39.83;;;17.53;;
3274;SDS011;1649;53.672;10.064;2022-12-18T15:26:45;37.58;;;18.05;;
3274;SDS011;1649;53.672;10.064;2022-12-18T15:29:21;49.00;;;21.50;;
3274;SDS011;1649;53.672;10.064;2022-12-18T15:32:00;38.35;;;18.63;;
3274;SDS011;1649;53.672;10.064;2022-12-18T15:34:29;32.25;;;16.48;;
3274;SDS011;1649;53.672;10.064;2022-12-18T15:36:55;36.70;;;17.95;;
3274;SDS011;1649;53.672;10.064;2022-12-18T15:39:20;58.10;;;24.27;;
3274;SDS011;1649;53.672;10.064;2022-12-18T15:41:46;40.30;;;19.27;;
3274;SDS011;1649;53.672;10.064;2022-12-18T15:44:31;40.58;;;19.63;;
3274;SDS011;1649;53.672;10.064;2022-12-18T15:46:57;41.33;;;17.90;;
3274;SDS011;1649;53.672;10.064;2022-12-18T15:49:23;34.45;;;14.65;;
3274;SDS011;1649;53.672;10.064;2022-12-18T15:51:51;27.83;;;12.70;;
3274;SDS011;1649;53.672;10.064;2022-12-18T15:54:18;35.28;;;16.17;;
3274;SDS011;1649;53.672;10.064;2022-12-18T15:57:04;36.92;;;14.85;;
3274;SDS011;1649;53.672;10.064;2022-12-18T15:59:48;36.58;;;16.15;;
3274;SDS011;1649;53.672;10.064;2022-12-18T16:02:16;35.40;;;16.73;;
3274;SDS011;1649;53.672;10.064;2022-12-18T16:04:43;38.03;;;17.27;;
3274;SDS011;1649;53.672;10.064;2022-12-18T16:07:08;28.27;;;12.03;;
3274;SDS011;1649;53.672;10.064;2022-12-18T16:09:34;35.53;;;14.70;;
3274;SDS011;1649;53.672;10.064;2022-12-18T16:12:00;41.85;;;17.17;;
3274;SDS011;1649;53.672;10.064;2022-12-18T16:14:27;33.90;;;15.33;;
3274;SDS011;1649;53.672;10.064;2022-12-18T16:16:57;42.75;;;12.15;;
3274;SDS011;1649;53.672;10.064;2022-12-18T16:19:28;36.60;;;18.25;;
3274;SDS011;1649;53.672;10.064;2022-12-18T16:21:55;39.53;;;17.10;;
3274;SDS011;1649;53.672;10.064;2022-12-18T16:24:23;39.88;;;17.65;;
3274;SDS011;1649;53.672;10.064;2022-12-18T16:26:50;37.65;;;16.73;;
3274;SDS011;1649;53.672;10.064;2022-12-18T16:29:17;40.80;;;16.73;;
3274;SDS011;1649;53.672;10.064;2022-12-18T16:31:43;42.55;;;18.27;;
3274;SDS011;1649;53.672;10.064;2022-12-18T16:34:22;41.15;;;18.20;;
3274;SDS011;1649;53.672;10.064;2022-12-18T16:37:12;25.58;;;13.15;;